createdAt,value
2022-10-16T00:01:23.263Z,552.00
2022-10-16T00:04:11.574Z,555.92
2022-10-16T00:07:00.776Z,543.38
2022-10-16T00:09:48.864Z,525.00
2022-10-16T00:12:36.777Z,552.60
2022-10-16T00:15:24.710Z,544.58
2022-10-16T00:18:12.655Z,535.03
2022-10-16T00:21:04.691Z,551.10
2022-10-16T00:23:54.642Z,565.38
2022-10-16T00:26:42.695Z,541.42
2022-10-16T00:29:30.653Z,537.88
2022-10-16T00:32:19.237Z,527.25
2022-10-16T00:35:07.969Z,560.33
2022-10-16T00:37:55.851Z,564.47
2022-10-16T00:40:45.117Z,562.15
2022-10-16T00:43:39.808Z,558.95
2022-10-16T00:46:30.960Z,547.78
2022-10-16T00:49:22.198Z,562.35
2022-10-16T00:52:10.170Z,540.10
2022-10-16T00:54:58.805Z,540.00
2022-10-16T00:57:50.019Z,542.03
2022-10-16T01:00:38.231Z,546.33
2022-10-16T01:03:31.592Z,539.92
2022-10-16T01:06:32.896Z,543.28
2022-10-16T01:09:26.056Z,515.70
2022-10-16T01:12:18.236Z,540.17
2022-10-16T01:15:13.529Z,538.45
2022-10-16T01:18:10.436Z,539.13
2022-10-16T01:21:04.582Z,527.20
2022-10-16T01:24:03.535Z,529.97
2022-10-16T01:27:26.538Z,523.63
2022-10-16T01:30:20.341Z,533.17
2022-10-16T01:33:13.427Z,527.45
2022-10-16T01:36:08.794Z,525.83
2022-10-16T01:39:02.558Z,549.95
2022-10-16T01:41:56.261Z,558.85
2022-10-16T01:44:47.506Z,545.05
2022-10-16T01:47:37.358Z,562.05
2022-10-16T01:50:26.629Z,524.67
2022-10-16T01:53:17.554Z,522.28
2022-10-16T01:56:10.233Z,557.17
2022-10-16T01:59:04.840Z,504.23
2022-10-16T02:01:57.670Z,567.30
2022-10-16T02:04:49.500Z,567.08
2022-10-16T02:07:37.430Z,549.50
2022-10-16T02:10:26.310Z,541.08
2022-10-16T02:13:19.076Z,529.70
2022-10-16T02:16:08.237Z,539.95
2022-10-16T02:18:57.518Z,553.33
2022-10-16T02:21:51.990Z,547.30
2022-10-16T02:24:49.678Z,517.85
2022-10-16T02:27:43.752Z,545.47
2022-10-16T02:30:37.154Z,536.80
2022-10-16T02:33:27.341Z,530.95
2022-10-16T02:36:16.967Z,523.63
2022-10-16T02:39:06.314Z,546.92
2022-10-16T02:41:54.245Z,544.28
2022-10-16T02:44:42.252Z,562.90
2022-10-16T02:47:30.134Z,520.88
2022-10-16T02:50:18.910Z,561.53
2022-10-16T02:53:08.122Z,561.22
2022-10-16T02:55:56.018Z,536.63
2022-10-16T02:58:43.888Z,572.63
2022-10-16T03:01:32.310Z,531.55
2022-10-16T03:04:20.530Z,523.88
2022-10-16T03:07:08.534Z,561.38
2022-10-16T03:09:58.350Z,556.80
2022-10-16T03:12:46.325Z,543.67
2022-10-16T03:15:34.265Z,547.92
2022-10-16T03:18:22.209Z,530.22
2022-10-16T03:21:10.099Z,531.72
2022-10-16T03:23:58.032Z,524.85
2022-10-16T03:26:47.262Z,525.35
2022-10-16T03:29:35.256Z,523.13
2022-10-16T03:32:23.403Z,537.95
2022-10-16T03:35:11.386Z,512.25
2022-10-16T03:37:59.286Z,517.15
2022-10-16T03:40:47.187Z,516.40
2022-10-16T03:43:36.825Z,526.90
2022-10-16T03:46:24.790Z,515.88
2022-10-16T03:49:12.788Z,539.50
2022-10-16T03:52:00.757Z,564.83
2022-10-16T03:54:48.673Z,525.22
2022-10-16T03:57:36.720Z,534.22
2022-10-16T04:00:26.052Z,536.35
2022-10-16T04:03:14.094Z,519.28
2022-10-16T04:06:02.050Z,547.38
2022-10-16T04:08:49.939Z,527.88
2022-10-16T04:11:37.908Z,537.90
2022-10-16T04:14:25.819Z,520.47
2022-10-16T04:17:15.135Z,521.15
2022-10-16T04:20:03.303Z,536.15
2022-10-16T04:22:51.217Z,532.08
2022-10-16T04:25:39.112Z,534.58
2022-10-16T04:28:27.406Z,539.28
2022-10-16T04:31:15.333Z,527.30
2022-10-16T04:34:04.585Z,546.33
2022-10-16T04:36:52.520Z,531.97
2022-10-16T04:39:40.407Z,513.40
2022-10-16T04:42:28.326Z,526.53
2022-10-16T04:45:17.285Z,535.67
2022-10-16T04:48:05.515Z,546.47
2022-10-16T04:50:55.338Z,520.67
2022-10-16T04:53:43.263Z,512.70
2022-10-16T04:56:31.183Z,533.90
2022-10-16T04:59:19.903Z,542.90
2022-10-16T05:02:07.813Z,532.30
2022-10-16T05:04:55.717Z,540.58
2022-10-16T05:07:44.962Z,523.50
2022-10-16T05:10:32.984Z,538.97
2022-10-16T05:13:20.902Z,538.55
2022-10-16T05:16:08.887Z,523.03
2022-10-16T05:19:22.524Z,516.03
2022-10-16T05:22:05.269Z,539.42
2022-10-16T05:24:54.488Z,526.47
2022-10-16T05:27:42.447Z,524.95
2022-10-16T05:30:30.438Z,525.50
2022-10-16T05:33:18.493Z,512.97
2022-10-16T05:36:08.965Z,520.45
2022-10-16T05:38:56.853Z,542.85
2022-10-16T05:41:46.138Z,549.75
2022-10-16T05:47:27.556Z,499.45
2022-10-16T05:50:15.725Z,529.38
2022-10-16T05:53:03.835Z,501.77
2022-10-16T05:55:54.088Z,533.88
2022-10-16T05:58:45.177Z,537.03
2022-10-16T06:01:33.767Z,560.90
2022-10-16T06:04:01.487Z,544.63
2022-10-16T06:06:30.546Z,540.25
2022-10-16T06:09:00.608Z,535.17
2022-10-16T06:11:31.033Z,536.65
2022-10-16T06:14:03.646Z,520.47
2022-10-16T06:16:31.856Z,529.22
2022-10-16T06:19:00.373Z,536.10
2022-10-16T06:21:29.630Z,519.75
2022-10-16T06:23:58.911Z,517.67
2022-10-16T06:26:29.031Z,521.05
2022-10-16T06:28:57.785Z,523.75
2022-10-16T06:31:29.981Z,525.47
2022-10-16T06:33:57.644Z,528.70
2022-10-16T06:36:26.219Z,514.03
2022-10-16T06:38:54.179Z,540.50
2022-10-16T06:41:23.831Z,535.50
2022-10-16T06:43:51.507Z,556.38
2022-10-16T06:46:21.700Z,529.55
2022-10-16T06:48:50.777Z,530.42
2022-10-16T06:51:19.981Z,546.35
2022-10-16T06:54:05.661Z,548.83
2022-10-16T06:56:34.747Z,548.08
2022-10-16T06:59:02.950Z,543.40
2022-10-16T07:01:31.096Z,557.35
2022-10-16T07:04:00.322Z,511.10
2022-10-16T07:06:29.201Z,522.00
2022-10-16T07:08:56.802Z,530.25
2022-10-16T07:11:25.570Z,542.90
2022-10-16T07:13:55.823Z,522.80
2022-10-16T07:16:26.476Z,515.67
2022-10-16T07:18:59.269Z,524.90
2022-10-16T07:21:30.462Z,534.22
2022-10-16T07:24:00.488Z,545.00
2022-10-16T07:26:30.901Z,537.42
2022-10-16T07:28:58.766Z,523.72
2022-10-16T07:31:27.203Z,531.53
2022-10-16T07:33:55.615Z,553.95
2022-10-16T07:36:23.867Z,571.42
2022-10-16T07:38:55.517Z,529.63
2022-10-16T07:41:26.409Z,542.05
2022-10-16T07:43:55.837Z,568.55
2022-10-16T07:46:24.833Z,531.35
2022-10-16T07:48:52.956Z,544.90
2022-10-16T07:51:22.438Z,575.88
2022-10-16T07:53:50.740Z,538.85
2022-10-16T07:56:20.981Z,570.40
2022-10-16T07:58:50.624Z,550.22
2022-10-16T08:01:19.106Z,538.67
2022-10-16T08:03:49.066Z,564.20
2022-10-16T08:06:17.027Z,544.55
2022-10-16T08:08:44.909Z,565.55
2022-10-16T08:11:12.622Z,567.63
2022-10-16T08:13:41.611Z,562.20
2022-10-16T08:16:10.700Z,533.00
2022-10-16T08:18:39.874Z,546.00
2022-10-16T08:21:08.519Z,566.40
2022-10-16T08:23:36.209Z,565.13
2022-10-16T08:26:07.052Z,560.08
2022-10-16T08:28:35.639Z,554.42
2022-10-16T08:31:09.779Z,564.35
2022-10-16T08:33:37.922Z,568.00
2022-10-16T08:36:07.114Z,573.97
2022-10-16T08:38:35.598Z,588.88
2022-10-16T08:41:21.493Z,598.70
2022-10-16T08:44:05.233Z,593.15
2022-10-16T08:46:49.636Z,566.15
2022-10-16T08:49:19.118Z,601.47
2022-10-16T08:51:47.427Z,577.17
2022-10-16T08:54:24.984Z,597.25
2022-10-16T08:56:52.643Z,609.45
2022-10-16T08:59:21.165Z,582.58
2022-10-16T09:01:54.028Z,599.42
2022-10-16T09:04:46.317Z,579.80
2022-10-16T09:07:20.363Z,571.42
2022-10-16T09:10:00.329Z,570.72
2022-10-16T09:12:32.769Z,585.55
2022-10-16T09:15:12.268Z,595.80
2022-10-16T09:17:54.965Z,601.47
2022-10-16T09:20:32.246Z,583.33
2022-10-16T09:23:14.743Z,583.10
2022-10-16T09:25:46.369Z,605.20
2022-10-16T09:28:14.000Z,577.40
2022-10-16T09:30:41.890Z,614.85
2022-10-16T09:33:13.138Z,590.42
2022-10-16T09:35:43.808Z,598.60
2022-10-16T09:38:23.374Z,592.60
2022-10-16T09:40:58.966Z,595.10
2022-10-16T09:43:36.199Z,610.65
2022-10-16T09:46:05.676Z,604.00
2022-10-16T09:48:39.149Z,600.85
2022-10-16T09:51:08.785Z,593.90
2022-10-16T09:53:42.390Z,638.50
2022-10-16T09:56:14.646Z,633.38
2022-10-16T09:58:46.348Z,619.78
2022-10-16T10:01:16.596Z,610.55
2022-10-16T10:03:46.479Z,592.60
2022-10-16T10:06:22.939Z,598.80
2022-10-16T10:08:59.025Z,576.67
2022-10-16T10:11:49.911Z,600.17
2022-10-16T10:14:21.934Z,586.97
2022-10-16T10:16:49.808Z,616.50
2022-10-16T10:19:20.854Z,576.17
2022-10-16T10:21:48.967Z,601.90
2022-10-16T10:24:18.092Z,610.83
2022-10-16T10:26:53.080Z,633.50
2022-10-16T10:29:31.010Z,618.05
2022-10-16T10:32:07.796Z,619.05
2022-10-16T10:34:54.234Z,628.85
2022-10-16T10:37:35.936Z,630.15
2022-10-16T10:40:13.429Z,609.50
2022-10-16T10:42:51.571Z,578.33
2022-10-16T10:45:25.178Z,582.97
2022-10-16T10:48:06.004Z,579.72
2022-10-16T10:50:41.617Z,572.05
2022-10-16T10:53:20.294Z,562.95
2022-10-16T10:55:56.228Z,559.80
2022-10-16T10:58:51.352Z,559.85
2022-10-16T11:01:24.588Z,553.85
2022-10-16T11:04:12.656Z,588.85
2022-10-16T11:06:47.570Z,555.15
2022-10-16T11:09:19.575Z,567.28
2022-10-16T11:11:51.656Z,564.17
2022-10-16T11:14:22.185Z,552.20
2022-10-16T11:16:55.610Z,589.40
2022-10-16T11:19:35.675Z,549.80
2022-10-16T11:22:11.449Z,577.70
2022-10-16T11:24:47.370Z,565.15
2022-10-16T11:27:21.287Z,590.65
2022-10-16T11:29:58.200Z,596.85
2022-10-16T11:32:31.962Z,594.15
2022-10-16T11:35:04.220Z,587.65
2022-10-16T11:37:39.865Z,582.33
2022-10-16T11:40:22.185Z,594.22
2022-10-16T11:42:57.139Z,554.95
2022-10-16T11:45:31.693Z,531.90
2022-10-16T11:48:08.530Z,542.70
2022-10-16T11:50:42.639Z,565.30
2022-10-16T11:53:20.422Z,568.03
2022-10-16T11:55:48.443Z,570.67
2022-10-16T11:58:24.755Z,549.85
2022-10-16T12:01:01.696Z,532.25
2022-10-16T12:03:35.802Z,557.45
2022-10-16T12:06:27.723Z,562.65
2022-10-16T12:08:58.295Z,550.22
2022-10-16T12:11:35.298Z,588.65
2022-10-16T12:14:09.068Z,559.70
2022-10-16T12:16:39.465Z,602.72
2022-10-16T12:19:15.828Z,575.17
2022-10-16T12:21:44.553Z,601.88
2022-10-16T12:24:29.526Z,597.95
2022-10-16T12:26:57.614Z,592.00
2022-10-16T12:29:32.543Z,576.47
2022-10-16T12:32:00.600Z,594.85
2022-10-16T12:34:31.254Z,606.25
2022-10-16T12:37:11.834Z,595.28
2022-10-16T12:39:41.021Z,597.15
2022-10-16T12:42:35.294Z,583.63
2022-10-16T12:45:03.884Z,592.00
2022-10-16T12:47:48.770Z,591.38
2022-10-16T12:50:29.188Z,580.88
2022-10-16T12:52:56.897Z,572.72
2022-10-16T12:55:26.483Z,584.00
2022-10-16T12:58:12.312Z,572.28
2022-10-16T13:00:47.439Z,584.25
2022-10-16T13:03:42.922Z,570.08
2022-10-16T13:06:20.820Z,581.42
2022-10-16T13:09:26.899Z,571.58
2022-10-16T13:12:18.869Z,570.38
2022-10-16T13:15:03.462Z,578.20
2022-10-16T13:17:40.705Z,599.00
2022-10-16T13:20:19.358Z,618.08
2022-10-16T13:22:56.718Z,601.15
2022-10-16T13:25:33.172Z,618.17
2022-10-16T13:28:03.835Z,585.78
2022-10-16T13:30:33.941Z,599.40
2022-10-16T13:33:04.179Z,578.60
2022-10-16T13:35:33.968Z,564.95
2022-10-16T13:38:15.465Z,579.45
2022-10-16T13:40:54.456Z,589.55
2022-10-16T13:43:27.983Z,582.30
2022-10-16T13:46:00.773Z,564.03
2022-10-16T13:48:28.525Z,597.38
2022-10-16T13:51:07.971Z,597.78
2022-10-16T13:53:37.136Z,588.15
2022-10-16T13:56:07.498Z,585.63
2022-10-16T13:58:36.468Z,607.90
2022-10-16T14:01:07.600Z,613.25
2022-10-16T14:03:37.132Z,630.78
2022-10-16T14:06:09.792Z,605.53
2022-10-16T14:08:37.473Z,610.83
2022-10-16T14:11:05.276Z,631.67
2022-10-16T14:13:38.407Z,622.67
2022-10-16T14:16:10.209Z,614.38
2022-10-16T14:18:40.620Z,617.28
2022-10-16T14:21:13.825Z,622.05
2022-10-16T14:23:42.887Z,598.50
2022-10-16T14:26:16.975Z,622.75
2022-10-16T14:28:47.690Z,620.42
2022-10-16T14:31:30.614Z,608.95
2022-10-16T14:34:01.610Z,612.20
2022-10-16T14:36:30.668Z,597.75
2022-10-16T14:39:02.984Z,599.67
2022-10-16T14:41:32.445Z,588.95
2022-10-16T14:44:04.890Z,592.10
2022-10-16T14:46:36.591Z,567.47
2022-10-16T14:49:20.792Z,582.78
2022-10-16T14:51:49.085Z,585.72
2022-10-16T14:54:18.895Z,544.72
2022-10-16T14:56:52.044Z,588.22
2022-10-16T14:59:26.858Z,571.22
2022-10-16T15:01:54.598Z,564.83
2022-10-16T15:04:22.206Z,577.85
2022-10-16T15:06:50.041Z,561.00
2022-10-16T15:09:17.738Z,572.08
2022-10-16T15:11:45.822Z,561.30
2022-10-16T15:16:48.869Z,585.15
2022-10-16T15:19:16.541Z,562.20
2022-10-16T15:21:44.503Z,556.85
2022-10-16T15:24:16.717Z,533.45
2022-10-16T15:26:47.797Z,555.90
2022-10-16T15:29:15.509Z,567.58
2022-10-16T15:31:43.569Z,532.28
2022-10-16T15:34:14.027Z,575.85
2022-10-16T15:36:41.842Z,587.55
2022-10-16T15:39:14.967Z,559.17
2022-10-16T15:41:42.760Z,577.55
2022-10-16T15:44:10.676Z,579.25
2022-10-16T15:46:38.341Z,561.35
2022-10-16T15:49:06.252Z,551.78
2022-10-16T15:51:35.292Z,560.00
2022-10-16T15:54:03.189Z,562.08
2022-10-16T15:56:34.032Z,540.42
2022-10-16T15:59:02.906Z,561.05
2022-10-16T16:01:34.252Z,548.90
2022-10-16T16:04:07.484Z,539.25
2022-10-16T16:06:45.639Z,551.55
2022-10-16T16:09:14.378Z,539.72
2022-10-16T16:11:42.380Z,559.40
2022-10-16T16:14:13.822Z,551.45
2022-10-16T16:16:42.229Z,546.60
2022-10-16T16:19:11.690Z,544.92
2022-10-16T16:21:40.180Z,546.05
2022-10-16T16:24:09.721Z,547.50
2022-10-16T16:26:40.791Z,555.13
2022-10-16T16:29:09.370Z,549.92
2022-10-16T16:31:37.181Z,536.80
2022-10-16T16:34:05.117Z,536.05
2022-10-16T16:36:33.824Z,565.55
2022-10-16T16:39:01.560Z,537.55
2022-10-16T16:41:31.976Z,575.17
2022-10-16T16:44:04.416Z,531.42
2022-10-16T16:46:32.931Z,526.42
2022-10-16T16:49:00.908Z,549.10
2022-10-16T16:51:28.807Z,554.72
2022-10-16T16:53:56.742Z,560.25
2022-10-16T16:56:25.830Z,572.95
2022-10-16T16:58:56.865Z,560.35
2022-10-16T17:01:26.347Z,564.60
2022-10-16T17:03:56.222Z,560.35
2022-10-16T17:06:26.961Z,576.63
2022-10-16T17:08:55.358Z,579.85
2022-10-16T17:11:24.699Z,574.28
2022-10-16T17:13:56.959Z,559.72
2022-10-16T17:16:28.034Z,554.50
2022-10-16T17:18:55.903Z,567.35
2022-10-16T17:21:23.693Z,560.92
2022-10-16T17:23:53.722Z,564.38
2022-10-16T17:26:21.721Z,578.97
2022-10-16T17:28:53.042Z,559.13
2022-10-16T17:31:23.715Z,559.33
2022-10-16T17:33:52.474Z,550.28
2022-10-16T17:36:21.885Z,588.65
2022-10-16T17:38:50.358Z,563.45
2022-10-16T17:41:20.986Z,539.63
2022-10-16T17:43:49.398Z,543.80
2022-10-16T17:46:19.214Z,529.25
2022-10-16T17:48:50.786Z,565.20
2022-10-16T17:51:21.141Z,548.03
2022-10-16T17:53:49.892Z,554.47
2022-10-16T17:56:17.928Z,539.90
2022-10-16T17:58:49.010Z,564.42
2022-10-16T18:01:21.993Z,539.30
2022-10-16T18:03:52.313Z,546.47
2022-10-16T18:06:23.094Z,554.80
2022-10-16T18:08:51.328Z,558.63
2022-10-16T18:11:19.279Z,534.40
2022-10-16T18:13:47.097Z,585.28
2022-10-16T18:16:16.517Z,569.78
2022-10-16T18:18:45.864Z,560.88
2022-10-16T18:21:17.297Z,561.58
2022-10-16T18:23:50.919Z,555.17
2022-10-16T18:26:21.024Z,578.03
2022-10-16T18:28:48.920Z,550.60
2022-10-16T18:31:18.205Z,531.15
2022-10-16T18:33:50.358Z,535.83
2022-10-16T18:36:21.802Z,549.67
2022-10-16T18:38:50.208Z,562.95
2022-10-16T18:41:17.977Z,541.53
2022-10-16T18:43:45.643Z,543.22
2022-10-16T18:46:16.029Z,579.75
2022-10-16T18:48:44.721Z,546.22
2022-10-16T18:51:14.796Z,558.50
2022-10-16T18:53:46.884Z,536.67
2022-10-16T18:56:16.152Z,567.65
2022-10-16T18:58:45.367Z,550.95
2022-10-16T19:01:16.318Z,562.75
2022-10-16T19:03:44.919Z,556.47
2022-10-16T19:06:14.954Z,558.65
2022-10-16T19:08:44.431Z,538.08
2022-10-16T19:11:15.081Z,551.15
2022-10-16T19:13:43.144Z,557.22
2022-10-16T19:16:20.342Z,526.17
2022-10-16T19:18:49.452Z,570.70
2022-10-16T19:21:18.470Z,557.65
2022-10-16T19:23:48.083Z,545.42
2022-10-16T19:26:18.028Z,545.00
2022-10-16T19:28:46.473Z,532.75
2022-10-16T19:31:16.498Z,564.53
2022-10-16T19:33:44.351Z,540.35
2022-10-16T19:36:13.882Z,535.92
2022-10-16T19:38:42.653Z,539.95
2022-10-16T19:41:14.038Z,506.55
2022-10-16T19:43:42.301Z,516.83
2022-10-16T19:46:12.612Z,521.47
2022-10-16T19:48:40.957Z,521.70
2022-10-16T19:51:12.590Z,519.42
2022-10-16T19:53:40.246Z,501.30
2022-10-16T19:56:16.087Z,524.97
2022-10-16T19:58:44.525Z,566.88
2022-10-16T20:01:13.143Z,548.30
2022-10-16T20:03:59.940Z,539.08
2022-10-16T20:06:47.863Z,541.40
2022-10-16T20:09:36.091Z,511.88
2022-10-16T20:12:25.335Z,558.42
2022-10-16T20:15:13.237Z,533.50
2022-10-16T20:18:01.140Z,550.80
2022-10-16T20:20:52.216Z,541.75
2022-10-16T20:23:40.978Z,530.47
2022-10-16T20:26:29.206Z,518.70
2022-10-16T20:29:18.618Z,523.83
2022-10-16T20:32:06.553Z,509.45
2022-10-16T20:34:54.435Z,506.77
2022-10-16T20:37:44.666Z,534.00
2022-10-16T20:40:35.067Z,514.05
2022-10-16T20:43:23.088Z,502.77
2022-10-16T20:46:14.258Z,502.10
2022-10-16T20:49:10.678Z,483.27
2022-10-16T20:51:59.347Z,506.05
2022-10-16T20:54:47.295Z,515.65
2022-10-16T20:57:35.223Z,500.85
2022-10-16T21:00:23.241Z,483.30
2022-10-16T21:03:13.038Z,500.98
2022-10-16T21:06:03.157Z,503.88
2022-10-16T21:08:51.551Z,497.60
2022-10-16T21:11:39.768Z,496.65
2022-10-16T21:14:27.699Z,456.13
2022-10-16T21:17:15.647Z,509.80
2022-10-16T21:20:05.679Z,522.42
2022-10-16T21:22:53.619Z,516.58
2022-10-16T21:25:49.078Z,519.22
2022-10-16T21:28:37.042Z,488.67
2022-10-16T21:31:25.178Z,487.23
2022-10-16T21:34:13.165Z,521.40
2022-10-16T21:37:02.440Z,519.90
2022-10-16T21:39:50.410Z,529.35
2022-10-16T21:42:38.382Z,514.85
2022-10-16T21:45:26.384Z,500.52
2022-10-16T21:48:14.302Z,516.28
2022-10-16T21:51:02.313Z,526.00
2022-10-16T21:53:51.549Z,493.35
2022-10-16T21:56:39.875Z,517.05
2022-10-16T21:59:27.800Z,521.92
2022-10-16T22:02:15.719Z,513.40
2022-10-16T22:05:03.712Z,544.55
2022-10-16T22:07:51.624Z,533.17
2022-10-16T22:10:40.915Z,525.40
2022-10-16T22:13:28.801Z,546.63
2022-10-16T22:16:20.713Z,508.33
2022-10-16T22:19:08.949Z,525.17
2022-10-16T22:21:57.352Z,510.70
2022-10-16T22:24:45.436Z,537.90
2022-10-16T22:27:34.700Z,532.05
2022-10-16T22:30:22.683Z,515.75
2022-10-16T22:33:10.604Z,536.55
2022-10-16T22:36:00.975Z,519.22
2022-10-16T22:38:49.013Z,528.83
2022-10-16T22:41:37.088Z,511.92
2022-10-16T22:44:30.903Z,542.58
2022-10-16T22:47:18.786Z,494.08
2022-10-16T22:50:07.472Z,519.47
2022-10-16T22:52:56.636Z,539.85
2022-10-16T22:55:45.338Z,512.17
2022-10-16T22:58:33.542Z,501.17
2022-10-16T23:01:24.821Z,510.65
2022-10-16T23:04:12.790Z,544.90
2022-10-16T23:07:01.072Z,519.75
2022-10-16T23:09:49.060Z,517.38
2022-10-16T23:12:37.503Z,516.22
2022-10-16T23:15:25.465Z,498.35
2022-10-16T23:18:14.744Z,528.80
2022-10-16T23:21:05.928Z,523.25
2022-10-16T23:23:55.086Z,506.38
2022-10-16T23:26:43.046Z,554.55
2022-10-16T23:29:31.010Z,546.67
2022-10-16T23:32:18.944Z,539.45
2022-10-16T23:35:09.120Z,524.35
2022-10-16T23:37:58.126Z,513.10
2022-10-16T23:40:46.052Z,518.47
2022-10-16T23:43:34.047Z,516.63
2022-10-16T23:46:22.076Z,532.35
2022-10-16T23:49:10.103Z,509.27
2022-10-16T23:51:59.344Z,554.00
2022-10-16T23:54:47.248Z,531.72
2022-10-16T23:57:35.150Z,499.60
